Time;durP1;ratioP1;P1;durP2;ratioP2;P2;SDS_P1;SDS_P2;PMS_P1;PMS_P2;Temp;Humidity;BMP_temperature;BMP_pressure;BME280_temperature;BME280_humidity;BME280_pressure;Samples;Min_cycle;Max_cycle;Signal;HPM_P1;HPM_P2
2022/08/20 00:00:35;;;;;;;9.40;3.00;;;19.20;99.90;;;;;;4881776;29;20053;-77
2022/08/20 00:03:28;;;;;;;7.97;2.58;;;19.30;99.90;;;;;;4881894;29;20096;-78
2022/08/20 00:06:05;;;;;;;9.00;2.90;;;19.30;99.90;;;;;;4881967;29;20482;-77
2022/08/20 00:08:31;;;;;;;8.10;2.78;;;19.20;99.90;;;;;;4883014;29;20049;-77
2022/08/20 00:10:58;;;;;;;5.38;2.50;;;19.20;99.90;;;;;;4882499;29;20057;-77
2022/08/20 00:13:31;;;;;;;9.35;2.90;;;19.10;99.90;;;;;;4882766;29;20049;-77
2022/08/20 00:15:56;;;;;;;5.97;2.47;;;19.10;99.90;;;;;;4882762;29;20049;-77
2022/08/20 00:18:22;;;;;;;6.60;2.47;;;19.10;99.90;;;;;;4882663;29;20047;-77
2022/08/20 00:20:51;;;;;;;6.03;2.63;;;19.10;99.90;;;;;;4882674;29;20488;-77
2022/08/20 00:23:18;;;;;;;5.63;2.30;;;19.00;99.90;;;;;;4882391;29;20469;-77
2022/08/20 00:25:45;;;;;;;6.53;2.72;;;19.00;99.90;;;;;;4882449;29;20053;-77
2022/08/20 00:28:12;;;;;;;5.28;2.53;;;19.00;99.90;;;;;;4881475;29;20121;-77
2022/08/20 00:30:40;;;;;;;9.45;3.55;;;18.90;99.90;;;;;;4881202;29;20084;-77
2022/08/20 00:33:13;;;;;;;9.73;2.70;;;18.90;99.90;;;;;;4881243;29;20084;-77
2022/08/20 00:35:43;;;;;;;9.35;2.80;;;19.00;99.90;;;;;;4882666;29;20493;-77
2022/08/20 00:38:09;;;;;;;6.40;2.80;;;18.90;99.90;;;;;;4881025;29;20044;-77
2022/08/20 00:40:42;;;;;;;11.43;2.70;;;18.90;99.90;;;;;;4880839;29;20450;-77
2022/08/20 00:43:35;;;;;;;8.43;2.58;;;18.90;99.90;;;;;;4881211;29;20056;-77
2022/08/20 00:46:02;;;;;;;;;;;18.90;99.90;;;;;;4881504;29;20092;-77
2022/08/20 00:48:31;;;;;;;7.70;2.33;;;18.80;99.90;;;;;;4881198;29;20387;-77
2022/08/20 00:51:10;;;;;;;9.55;2.20;;;18.70;99.90;;;;;;4881959;29;20052;-77
2022/08/20 00:53:37;;;;;;;7.10;2.38;;;18.70;99.90;;;;;;4880878;29;20124;-77
2022/08/20 00:56:05;;;;;;;6.82;2.28;;;18.70;99.90;;;;;;4881821;29;20057;-77
2022/08/20 00:58:32;;;;;;;8.02;2.67;;;18.60;99.90;;;;;;4881847;29;20517;-77
2022/08/20 01:00:58;;;;;;;9.07;2.13;;;18.70;99.90;;;;;;4880647;29;20465;-77
2022/08/20 01:03:24;;;;;;;9.05;2.35;;;18.80;99.90;;;;;;4881846;29;20053;-77
2022/08/20 01:05:51;;;;;;;10.32;2.45;;;18.70;99.90;;;;;;4881863;29;20096;-77
2022/08/20 01:08:19;;;;;;;8.93;2.40;;;18.70;99.90;;;;;;4880759;29;20079;-76
2022/08/20 01:10:48;;;;;;;9.18;2.50;;;18.70;99.90;;;;;;4881416;29;20498;-76
2022/08/20 01:13:19;;;;;;;11.43;2.78;;;18.60;99.90;;;;;;4881769;29;20057;-77
2022/08/20 01:15:48;;;;;;;8.07;2.05;;;18.70;99.90;;;;;;4880392;29;20116;-77
2022/08/20 01:18:18;;;;;;;7.20;2.13;;;18.60;99.90;;;;;;4881722;29;20045;-77
2022/08/20 01:20:49;;;;;;;9.18;2.28;;;18.70;99.90;;;;;;4880366;29;20140;-77
2022/08/20 01:23:39;;;;;;;8.73;2.17;;;18.60;99.90;;;;;;4882191;29;20152;-77
2022/08/20 01:26:11;;;;;;;9.48;2.22;;;18.60;99.90;;;;;;4881625;29;20104;-77
2022/08/20 01:28:37;;;;;;;8.88;1.90;;;18.50;99.90;;;;;;4881496;29;20045;-77
2022/08/20 01:31:05;;;;;;;13.07;2.40;;;18.50;99.90;;;;;;4881372;29;20048;-77
2022/08/20 01:33:32;;;;;;;7.18;1.88;;;18.40;99.90;;;;;;4880549;29;20061;-77
2022/08/20 01:35:58;;;;;;;5.50;1.80;;;18.40;99.90;;;;;;4881273;29;20133;-77
2022/08/20 01:38:23;;;;;;;9.27;1.80;;;18.40;99.90;;;;;;4881359;29;20082;-76
2022/08/20 01:41:13;;;;;;;10.80;1.95;;;18.40;99.90;;;;;;4881372;29;20060;-77
2022/08/20 01:43:40;;;;;;;9.57;2.10;;;18.40;99.90;;;;;;4881127;29;20053;-77
2022/08/20 01:46:08;;;;;;;8.02;1.90;;;18.50;99.90;;;;;;4881019;29;20489;-77
2022/08/20 01:48:35;;;;;;;6.97;1.70;;;18.40;99.90;;;;;;4879776;29;20048;-77
2022/08/20 01:51:07;;;;;;;10.13;2.72;;;18.40;99.90;;;;;;4879978;29;20060;-77
2022/08/20 01:53:38;;;;;;;8.10;1.80;;;18.40;99.90;;;;;;4881091;29;20040;-76
2022/08/20 01:56:07;;;;;;;12.65;2.20;;;18.40;99.90;;;;;;4880870;29;20057;-77
2022/08/20 01:58:36;;;;;;;8.98;1.35;;;18.40;99.90;;;;;;4880799;29;20405;-77
2022/08/20 02:01:01;;;;;;;13.48;1.80;;;18.30;99.90;;;;;;4879489;29;20049;-77
2022/08/20 02:03:27;;;;;;;7.50;1.55;;;18.40;99.90;;;;;;4880005;29;20052;-77
2022/08/20 02:05:53;;;;;;;10.52;1.77;;;18.30;99.90;;;;;;4880760;29;20367;-77
2022/08/20 02:08:20;;;;;;;9.07;2.00;;;18.40;99.90;;;;;;4880781;29;20057;-77
2022/08/20 02:10:46;;;;;;;7.55;1.98;;;18.30;99.90;;;;;;4879544;29;20061;-77
2022/08/20 02:13:12;;;;;;;5.65;1.27;;;18.30;99.90;;;;;;4880520;29;20049;-76
2022/08/20 02:15:38;;;;;;;7.80;1.60;;;18.30;99.90;;;;;;4880571;29;20097;-77
2022/08/20 02:18:07;;;;;;;5.95;1.10;;;18.30;99.90;;;;;;4880698;29;20037;-76
2022/08/20 02:20:32;;;;;;;8.38;1.42;;;18.30;99.90;;;;;;4879414;29;20045;-76
2022/08/20 02:22:59;;;;;;;10.50;1.83;;;18.30;99.90;;;;;;4880276;29;20458;-76
2022/08/20 02:25:29;;;;;;;6.55;1.60;;;18.30;99.90;;;;;;4879216;29;20109;-77
2022/08/20 02:27:56;;;;;;;7.70;1.40;;;18.20;99.90;;;;;;4880239;29;20563;-76
2022/08/20 02:30:26;;;;;;;10.75;1.70;;;18.20;99.90;;;;;;4879348;29;20408;-76
2022/08/20 02:32:52;;;;;;;7.05;1.50;;;18.20;99.90;;;;;;4894702;29;20056;-77
2022/08/20 02:35:18;;;;;;;6.57;1.30;;;18.20;99.90;;;;;;4880396;29;20045;-76
2022/08/20 02:37:45;;;;;;;6.45;1.80;;;18.20;99.90;;;;;;4880288;29;20059;-76
2022/08/20 02:40:19;;;;;;;7.95;1.33;;;18.20;99.90;;;;;;4880254;29;20088;-76
2022/08/20 02:42:44;;;;;;;7.47;1.30;;;18.20;99.90;;;;;;4880021;29;20127;-76
2022/08/20 02:45:14;;;;;;;6.70;1.00;;;18.10;99.90;;;;;;4878875;29;20140;-76
2022/08/20 02:47:42;;;;;;;7.57;1.50;;;18.10;99.90;;;;;;4880199;29;20076;-77
2022/08/20 02:50:13;;;;;;;10.45;1.50;;;18.10;99.90;;;;;;4880109;29;20049;-76
2022/08/20 02:52:38;;;;;;;8.38;1.10;;;18.10;99.90;;;;;;4880136;29;20049;-76
2022/08/20 02:55:04;;;;;;;5.93;1.25;;;18.10;99.90;;;;;;4878579;29;20378;-76
2022/08/20 02:57:30;;;;;;;7.80;1.77;;;18.10;99.90;;;;;;4880042;29;20093;-76
2022/08/20 02:59:56;;;;;;;5.05;1.27;;;18.00;99.90;;;;;;4878693;29;20536;-76
2022/08/20 03:02:22;;;;;;;10.10;1.60;;;18.00;99.90;;;;;;4878945;29;20053;-76
2022/08/20 03:04:48;;;;;;;6.95;1.45;;;18.00;99.90;;;;;;4879832;29;20501;-76
2022/08/20 03:07:13;;;;;;;6.75;1.10;;;18.00;99.90;;;;;;4879866;29;20045;-76
2022/08/20 03:09:40;;;;;;;9.82;1.30;;;18.00;99.90;;;;;;4879664;29;20053;-77
2022/08/20 03:12:06;;;;;;;7.20;1.27;;;18.00;99.90;;;;;;4879866;29;20409;-76
2022/08/20 03:14:33;;;;;;;6.15;1.40;;;18.00;99.90;;;;;;4878583;29;20053;-77
2022/08/20 03:16:59;;;;;;;10.07;1.90;;;18.00;99.90;;;;;;4879790;29;20033;-77
2022/08/20 03:19:25;;;;;;;7.40;1.30;;;18.00;99.90;;;;;;4878790;29;20166;-76
2022/08/20 03:21:50;;;;;;;5.82;1.00;;;18.00;99.90;;;;;;4879623;29;20481;-77
2022/08/20 03:24:16;;;;;;;6.20;1.33;;;18.00;99.90;;;;;;4879792;29;20045;-76
2022/08/20 03:26:42;;;;;;;6.30;1.27;;;18.00;99.90;;;;;;4879933;29;20112;-76
2022/08/20 03:29:08;;;;;;;6.93;1.10;;;18.00;99.90;;;;;;4879832;29;20049;-76
2022/08/20 03:31:34;;;;;;;3.50;1.02;;;18.00;99.90;;;;;;4879872;29;20155;-76
2022/08/20 03:33:59;;;;;;;6.00;0.98;;;18.00;99.90;;;;;;4879730;29;20080;-76
2022/08/20 03:36:26;;;;;;;7.75;1.10;;;18.00;99.90;;;;;;4878310;29;20128;-76
2022/08/20 03:38:52;;;;;;;7.70;1.13;;;18.00;99.90;;;;;;4879758;29;20077;-76
2022/08/20 03:41:18;;;;;;;5.97;1.00;;;18.00;99.90;;;;;;4879697;29;20072;-76
2022/08/20 03:43:44;;;;;;;5.57;1.00;;;18.00;99.90;;;;;;4879607;29;20186;-76
2022/08/20 03:46:10;;;;;;;4.22;1.00;;;18.00;99.90;;;;;;4879553;29;20390;-77
2022/08/20 03:48:37;;;;;;;8.05;1.17;;;18.00;99.90;;;;;;4879486;29;20489;-76
2022/08/20 03:51:03;;;;;;;3.72;0.70;;;18.00;99.90;;;;;;4879346;29;20431;-76
2022/08/20 03:53:30;;;;;;;8.02;1.08;;;18.00;99.90;;;;;;4879437;29;20549;-76
2022/08/20 03:55:59;;;;;;;5.20;1.35;;;18.00;99.90;;;;;;4879581;29;20044;-76
2022/08/20 03:58:27;;;;;;;5.20;0.88;;;18.00;99.90;;;;;;4879562;29;20049;-77
2022/08/20 04:00:54;;;;;;;4.30;0.98;;;18.00;99.90;;;;;;4879476;29;20045;-77
2022/08/20 04:03:21;;;;;;;4.60;0.88;;;18.00;99.90;;;;;;4879149;29;20049;-76
2022/08/20 04:05:48;;;;;;;4.35;0.77;;;17.90;99.90;;;;;;4878071;29;20064;-76
2022/08/20 04:08:17;;;;;;;3.80;0.73;;;17.90;99.90;;;;;;4878062;29;20049;-76
2022/08/20 04:10:46;;;;;;;6.88;1.27;;;17.90;99.90;;;;;;4879087;29;20435;-77
2022/08/20 04:13:14;;;;;;;3.83;0.93;;;17.90;99.90;;;;;;4879293;29;20537;-76
2022/08/20 04:15:40;;;;;;;6.57;1.05;;;17.90;99.90;;;;;;4879135;29;20049;-76
2022/08/20 04:18:07;;;;;;;7.32;1.17;;;17.90;99.90;;;;;;4879448;29;20056;-77
2022/08/20 04:20:36;;;;;;;3.67;0.80;;;17.90;99.90;;;;;;4877813;29;20056;-76
2022/08/20 04:23:02;;;;;;;5.85;1.00;;;17.80;99.90;;;;;;4877288;29;20105;-77
2022/08/20 04:25:30;;;;;;;7.78;0.95;;;17.70;99.90;;;;;;4877987;29;20132;-77
2022/08/20 04:27:57;;;;;;;6.00;0.80;;;17.70;99.90;;;;;;4880437;29;20144;-76
2022/08/20 04:30:24;;;;;;;7.30;1.20;;;17.70;99.90;;;;;;4882253;29;20045;-76
2022/08/20 04:32:50;;;;;;;6.25;0.85;;;17.70;99.90;;;;;;4881305;29;20045;-76
2022/08/20 04:35:17;;;;;;;4.47;0.98;;;17.80;99.90;;;;;;4882298;29;20057;-76
2022/08/20 04:37:47;;;;;;;5.03;1.00;;;17.70;99.90;;;;;;4882312;29;20124;-76
2022/08/20 04:43:03;;;;;;;6.05;1.30;;;17.70;99.90;;;;;;4881099;29;20045;-76
2022/08/20 04:45:33;;;;;;;6.35;1.10;;;17.60;99.90;;;;;;4881476;29;20057;-76
2022/08/20 04:48:04;;;;;;;3.97;0.80;;;17.60;99.90;;;;;;4882268;29;20120;-77
2022/08/20 04:50:34;;;;;;;3.20;0.90;;;17.60;99.90;;;;;;4881915;29;20088;-76
2022/08/20 04:53:04;;;;;;;5.45;0.90;;;17.60;99.90;;;;;;4880599;29;20057;-76
2022/08/20 04:55:30;;;;;;;6.35;1.17;;;17.60;99.90;;;;;;4880804;29;20061;-76
2022/08/20 04:58:05;;;;;;;5.38;1.27;;;17.60;99.90;;;;;;4880885;29;20049;-76
2022/08/20 05:00:31;;;;;;;6.05;1.40;;;17.60;99.90;;;;;;4882047;29;20049;-77
2022/08/20 05:02:57;;;;;;;4.68;0.90;;;17.60;99.90;;;;;;4881884;29;20096;-77
2022/08/20 05:05:23;;;;;;;3.45;0.95;;;17.50;99.90;;;;;;4881974;29;20049;-76
2022/08/20 05:07:48;;;;;;;4.43;1.10;;;17.50;99.90;;;;;;4880325;29;20409;-76
2022/08/20 05:10:16;;;;;;;5.63;1.02;;;17.50;99.90;;;;;;4881595;29;20489;-76
2022/08/20 05:12:43;;;;;;;6.40;1.30;;;17.50;99.90;;;;;;4880557;29;20412;-77
2022/08/20 05:15:10;;;;;;;5.00;1.05;;;17.50;99.90;;;;;;4881690;29;20075;-77
2022/08/20 05:17:37;;;;;;;7.00;1.15;;;17.50;99.90;;;;;;4880455;29;20064;-77
2022/08/20 05:20:05;;;;;;;6.88;1.17;;;17.50;99.90;;;;;;4881662;29;20045;-76
2022/08/20 05:22:30;;;;;;;5.38;0.93;;;17.50;99.90;;;;;;4881573;29;20041;-76
2022/08/20 05:24:58;;;;;;;6.75;1.10;;;17.40;99.90;;;;;;4881410;29;20544;-76
2022/08/20 05:27:25;;;;;;;4.65;1.00;;;17.40;99.90;;;;;;4881260;29;20112;-76
2022/08/20 05:29:54;;;;;;;5.75;1.17;;;17.50;99.90;;;;;;4881116;29;20390;-76
2022/08/20 05:32:20;;;;;;;4.93;1.10;;;17.40;99.90;;;;;;4880097;29;20053;-76
2022/08/20 05:34:46;;;;;;;8.38;1.27;;;17.40;99.90;;;;;;4881007;29;20465;-77
2022/08/20 05:37:12;;;;;;;4.75;1.13;;;17.50;99.90;;;;;;4880959;29;20438;-77
2022/08/20 05:39:38;;;;;;;5.50;1.05;;;17.50;99.90;;;;;;4881304;29;20500;-76
2022/08/20 05:42:04;;;;;;;5.65;1.30;;;17.40;99.90;;;;;;4879889;29;20429;-76
2022/08/20 05:44:30;;;;;;;7.03;1.35;;;17.50;99.90;;;;;;4881121;29;20049;-76
2022/08/20 05:46:55;;;;;;;7.70;1.77;;;17.50;99.90;;;;;;4880849;29;20045;-76
2022/08/20 05:49:21;;;;;;;5.28;0.77;;;17.50;99.90;;;;;;4880770;29;20041;-77
2022/08/20 05:51:49;;;;;;;4.82;0.95;;;17.50;99.90;;;;;;4881069;29;20409;-76
2022/08/20 05:54:15;;;;;;;5.63;1.30;;;17.60;99.90;;;;;;4879913;29;20092;-76
2022/08/20 05:56:41;;;;;;;5.03;1.08;;;17.70;99.90;;;;;;4880762;29;20072;-77
2022/08/20 05:59:08;;;;;;;4.03;1.02;;;17.80;99.90;;;;;;4880854;29;20040;-77
2022/08/20 06:01:37;;;;;;;7.15;1.63;;;17.90;99.90;;;;;;4880848;29;20037;-76
2022/08/20 06:06:50;;;;;;;4.38;1.17;;;18.10;99.90;;;;;;4879234;29;20503;-77
2022/08/20 06:09:18;;;;;;;4.38;1.02;;;18.30;99.90;;;;;;4879194;29;20067;-76
2022/08/20 06:11:44;;;;;;;5.60;1.20;;;18.40;99.90;;;;;;4880561;29;20135;-77
2022/08/20 06:14:10;;;;;;;7.32;1.33;;;18.60;99.90;;;;;;4879393;29;20131;-78
2022/08/20 06:16:36;;;;;;;5.05;1.00;;;18.80;99.90;;;;;;4880485;29;20510;-77
2022/08/20 06:19:01;;;;;;;4.88;1.00;;;18.90;99.90;;;;;;4879423;29;20389;-77
2022/08/20 06:21:27;;;;;;;5.50;1.10;;;19.00;99.90;;;;;;4879132;29;20101;-77
2022/08/20 06:23:53;;;;;;;6.68;1.02;;;19.30;99.90;;;;;;4880236;29;20049;-77
2022/08/20 06:26:19;;;;;;;5.82;0.95;;;19.40;99.90;;;;;;4880414;29;20049;-76
2022/08/20 06:28:44;;;;;;;6.60;0.90;;;19.60;99.90;;;;;;4880423;29;20121;-77
2022/08/20 06:31:10;;;;;;;6.13;1.10;;;19.70;99.90;;;;;;4879973;29;20049;-77
2022/08/20 06:33:36;;;;;;;5.63;0.95;;;19.80;99.90;;;;;;4880313;29;20057;-77
2022/08/20 06:36:03;;;;;;;5.25;1.08;;;19.90;99.90;;;;;;4880327;29;20080;-78
2022/08/20 06:38:31;;;;;;;5.22;1.25;;;20.10;99.90;;;;;;4880147;29;20053;-78
2022/08/20 06:40:57;;;;;;;4.47;1.17;;;20.20;99.90;;;;;;4880141;29;20048;-78
2022/08/20 06:43:23;;;;;;;5.35;0.90;;;20.30;99.90;;;;;;4878756;29;20137;-78
2022/08/20 06:45:48;;;;;;;6.00;1.20;;;20.40;99.90;;;;;;4880537;29;20047;-77
2022/08/20 06:48:14;;;;;;;8.35;1.05;;;20.40;99.90;;;;;;4879965;29;20516;-79
2022/08/20 06:50:43;;;;;;;7.20;1.27;;;20.60;99.90;;;;;;4879793;29;20037;-77
2022/08/20 06:53:11;;;;;;;5.03;1.00;;;20.60;99.90;;;;;;4880099;29;20061;-77
2022/08/20 06:55:41;;;;;;;5.50;1.10;;;20.80;99.90;;;;;;4880053;29;20045;-77
2022/08/20 06:58:08;;;;;;;6.13;1.20;;;20.80;99.90;;;;;;4880110;29;20497;-77
2022/08/20 07:00:37;;;;;;;8.02;1.52;;;20.90;99.90;;;;;;4879704;29;20056;-77
2022/08/20 07:03:03;;;;;;;4.50;0.90;;;21.00;99.90;;;;;;4871942;29;20056;-77
2022/08/20 07:05:34;;;;;;;5.30;0.77;;;21.00;99.90;;;;;;4866024;29;20049;-77
2022/08/20 08:29:29;;;;;;;7.40;1.38;;;22.60;99.90;;;;;;5952048;23;20017;-78
2022/08/20 08:54:20;;;;;;;6.05;1.77;;;23.10;99.90;;;;;;5118070;23;20061;-77
2022/08/20 09:03:34;;;;;;;8.55;1.55;;;23.30;99.90;;;;;;5919907;23;20057;-77
2022/08/20 09:17:26;;;;;;;6.53;1.75;;;23.80;99.90;;;;;;5457209;23;20449;-78
2022/08/20 09:29:34;;;;;;;6.28;1.30;;;23.40;99.90;;;;;;4879122;29;20119;-77
2022/08/20 09:32:24;;;;;;;4.38;0.70;;;23.60;99.90;;;;;;4873780;29;20089;-77
2022/08/20 09:40:02;;;;;;;6.82;1.40;;;23.50;99.90;;;;;;5391079;23;20060;-77
2022/08/20 09:42:32;;;;;;;6.38;1.63;;;23.70;99.90;;;;;;4901981;29;20040;-77
2022/08/20 09:44:58;;;;;;;6.35;1.17;;;23.80;99.90;;;;;;4925506;29;20154;-76
2022/08/20 09:47:30;;;;;;;3.88;1.10;;;23.70;99.90;;;;;;4937407;29;20105;-77
2022/08/20 09:49:56;;;;;;;;;;;23.50;99.90;;;;;;5155416;23;20102;-76
2022/08/20 09:52:31;;;;;;;6.15;1.55;;;23.60;99.90;;;;;;4920194;29;20024;-76
2022/08/20 09:55:17;;;;;;;3.28;0.90;;;23.70;99.90;;;;;;4919466;29;20048;-77
2022/08/20 10:04:13;;;;;;;7.82;1.45;;;23.90;99.90;;;;;;5034104;23;20151;-76
2022/08/20 10:06:40;;;;;;;4.65;1.00;;;24.00;99.90;;;;;;4904136;29;20143;-76
2022/08/20 10:09:06;;;;;;;6.25;1.40;;;24.00;99.90;;;;;;4912258;29;20059;-76
2022/08/20 10:11:35;;;;;;;4.53;1.40;;;24.20;99.90;;;;;;4916718;29;20448;-76
2022/08/20 10:14:01;;;;;;;5.63;1.40;;;24.20;99.90;;;;;;4933973;29;20076;-77
2022/08/20 10:21:29;;;;;;;6.82;1.58;;;23.90;99.90;;;;;;5632339;23;20084;-76
2022/08/20 10:23:59;;;;;;;5.53;1.35;;;23.90;99.90;;;;;;4891240;29;20052;-76
2022/08/20 10:39:37;;;;;;;8.75;2.10;;;24.00;99.90;;;;;;5039053;23;20128;-76
2022/08/20 10:42:10;;;;;;;5.32;1.55;;;23.70;99.90;;;;;;4894999;29;20058;-76
2022/08/20 11:02:26;;;;;;;;;;;23.40;99.90;;;;;;5937194;23;20028;-77
2022/08/20 11:15:14;;;;;;;5.57;1.40;;;23.40;99.90;;;;;;5182553;23;20060;-76
2022/08/20 11:22:52;;;;;;;7.55;1.92;;;23.60;99.90;;;;;;5963787;23;20027;-75
2022/08/20 11:25:18;;;;;;;4.88;1.70;;;23.60;99.90;;;;;;4931533;29;20056;-76
2022/08/20 11:27:47;;;;;;;4.80;1.65;;;23.50;99.90;;;;;;4934389;29;20036;-75
2022/08/20 11:30:17;;;;;;;5.70;2.00;;;23.40;99.90;;;;;;4931520;29;20183;-75
2022/08/20 11:32:43;;;;;;;7.55;1.55;;;23.30;99.90;;;;;;4927752;29;20067;-75
2022/08/20 11:35:09;;;;;;;6.85;2.10;;;23.30;99.90;;;;;;4935840;29;20480;-76
2022/08/20 11:37:35;;;;;;;5.70;2.00;;;23.30;99.90;;;;;;4939799;29;20067;-76
2022/08/20 11:40:01;;;;;;;7.93;2.08;;;23.30;99.90;;;;;;4939776;29;20055;-76
2022/08/20 11:42:26;;;;;;;7.45;2.00;;;23.30;99.90;;;;;;4922631;29;20095;-76
2022/08/20 11:44:52;;;;;;;6.53;1.70;;;23.30;99.90;;;;;;4922558;29;20087;-76
2022/08/20 11:47:23;;;;;;;6.82;1.67;;;23.10;99.90;;;;;;4939884;29;20087;-76
2022/08/20 11:50:00;;;;;;;7.03;2.08;;;23.00;99.90;;;;;;4939709;29;20095;-78
2022/08/20 11:52:28;;;;;;;6.60;1.80;;;22.90;99.90;;;;;;4939809;29;20036;-76
2022/08/20 11:54:54;;;;;;;7.03;2.80;;;23.00;99.90;;;;;;4939636;29;20396;-76
2022/08/20 11:57:31;;;;;;;8.10;1.70;;;23.10;99.90;;;;;;4936026;29;20051;-76
2022/08/20 11:59:59;;;;;;;8.65;1.90;;;23.20;99.90;;;;;;4933488;29;20404;-77
2022/08/20 12:02:25;;;;;;;8.13;2.22;;;23.20;99.90;;;;;;4937991;29;20055;-76
2022/08/20 12:04:51;;;;;;;6.75;2.45;;;23.30;99.90;;;;;;4932158;29;20047;-77
2022/08/20 12:07:20;;;;;;;7.30;2.25;;;23.30;99.90;;;;;;4939660;29;20122;-77
2022/08/20 12:09:47;;;;;;;8.50;1.80;;;23.50;99.90;;;;;;4939588;29;20044;-76
2022/08/20 12:12:14;;;;;;;8.77;2.47;;;23.50;99.90;;;;;;4939534;29;20059;-76
2022/08/20 12:14:39;;;;;;;8.40;2.13;;;23.50;99.90;;;;;;4939343;29;20067;-76
2022/08/20 12:17:10;;;;;;;6.07;2.83;;;23.50;99.90;;;;;;4938436;29;20530;-77
2022/08/20 12:19:41;;;;;;;8.60;2.22;;;23.30;99.90;;;;;;4937781;29;20056;-76
2022/08/20 12:22:08;;;;;;;7.10;2.50;;;23.30;99.90;;;;;;4933894;29;20059;-76
2022/08/20 12:24:34;;;;;;;7.50;2.42;;;23.20;99.90;;;;;;4938888;29;20049;-76
2022/08/20 12:27:14;;;;;;;9.27;2.15;;;23.10;99.90;;;;;;4933149;29;20063;-75
2022/08/20 12:29:41;;;;;;;9.60;2.03;;;23.10;99.90;;;;;;4938875;29;20094;-77
2022/08/20 12:32:07;;;;;;;8.50;2.15;;;23.20;99.90;;;;;;4933709;29;20051;-76
2022/08/20 12:34:34;;;;;;;7.78;2.10;;;23.10;99.90;;;;;;4937664;29;20051;-76
2022/08/20 12:37:03;;;;;;;7.25;2.35;;;23.20;99.90;;;;;;4932879;29;20048;-76
2022/08/20 12:39:32;;;;;;;7.45;2.40;;;23.20;99.90;;;;;;4938760;29;20043;-76
2022/08/20 12:41:59;;;;;;;7.32;2.40;;;23.20;99.90;;;;;;4938928;29;20044;-76
2022/08/20 12:44:25;;;;;;;13.13;3.05;;;23.20;99.90;;;;;;4935871;29;20048;-76
2022/08/20 12:46:50;;;;;;;8.68;2.17;;;23.30;99.90;;;;;;4931023;29;20114;-76
2022/08/20 12:49:16;;;;;;;9.13;2.50;;;23.40;99.90;;;;;;4938304;29;20048;-76
2022/08/20 12:51:41;;;;;;;9.77;2.58;;;23.50;99.90;;;;;;4930077;29;20052;-76
2022/08/20 12:54:07;;;;;;;8.82;1.90;;;23.50;99.90;;;;;;4938807;29;20044;-76
2022/08/20 12:56:33;;;;;;;8.73;2.10;;;23.40;99.90;;;;;;4938727;29;20102;-76
2022/08/20 12:58:58;;;;;;;6.97;1.83;;;23.30;99.90;;;;;;4938432;29;20126;-76
2022/08/20 13:01:24;;;;;;;9.07;2.13;;;23.30;99.90;;;;;;4935747;29;20055;-76
2022/08/20 13:03:49;;;;;;;5.80;1.42;;;23.40;99.90;;;;;;4930966;29;20079;-76
2022/08/20 13:06:15;;;;;;;4.90;1.50;;;23.40;99.90;;;;;;4938289;29;20044;-76
2022/08/20 13:08:41;;;;;;;9.02;1.55;;;23.50;99.90;;;;;;4930100;29;20039;-76
2022/08/20 13:11:06;;;;;;;5.40;1.60;;;23.70;99.90;;;;;;4936995;29;20051;-76
2022/08/20 13:13:32;;;;;;;6.90;1.60;;;23.90;99.90;;;;;;4938132;29;20051;-77
2022/08/20 13:15:57;;;;;;;7.57;1.95;;;24.00;99.90;;;;;;4931760;29;20055;-76
2022/08/20 13:18:23;;;;;;;6.57;1.30;;;23.80;99.90;;;;;;4937216;29;20055;-76
2022/08/20 13:20:49;;;;;;;7.25;1.33;;;23.80;99.90;;;;;;4937948;29;20118;-76
2022/08/20 13:23:15;;;;;;;7.32;1.60;;;23.90;99.90;;;;;;4938010;29;20052;-76
2022/08/20 13:25:40;;;;;;;5.20;1.30;;;23.70;99.90;;;;;;4937805;29;20466;-76
2022/08/20 13:28:06;;;;;;;6.45;1.52;;;23.70;99.90;;;;;;4937922;29;20484;-76
2022/08/20 13:30:37;;;;;;;7.55;1.85;;;23.70;99.90;;;;;;4935929;29;20047;-77
2022/08/20 13:33:02;;;;;;;6.35;1.15;;;23.60;99.90;;;;;;4938480;29;20043;-77
2022/08/20 13:35:29;;;;;;;6.55;1.40;;;23.80;99.90;;;;;;4937952;29;20036;-77
2022/08/20 13:37:55;;;;;;;8.25;1.73;;;23.90;99.90;;;;;;4942585;29;20051;-77
2022/08/20 13:40:21;;;;;;;5.85;1.50;;;23.90;99.90;;;;;;4940223;29;20463;-77
2022/08/20 13:43:04;;;;;;;5.53;1.40;;;24.10;99.90;;;;;;4949108;29;20043;-78
2022/08/20 13:48:19;;;;;;;7.28;1.45;;;24.10;99.90;;;;;;4945348;28;20106;-77
2022/08/20 13:50:44;;;;;;;7.53;1.73;;;23.90;99.90;;;;;;4948601;29;20051;-77
2022/08/20 13:53:13;;;;;;;6.13;1.27;;;23.90;99.90;;;;;;4954382;29;20409;-76
2022/08/20 13:55:45;;;;;;;9.98;1.50;;;24.00;99.90;;;;;;4918773;29;20048;-77
2022/08/20 13:58:11;;;;;;;8.68;1.65;;;23.90;99.90;;;;;;4918329;29;20087;-77
2022/08/20 14:00:40;;;;;;;7.65;1.60;;;24.00;99.90;;;;;;4918279;29;20048;-77
2022/08/20 14:03:06;;;;;;;4.97;1.10;;;24.10;99.90;;;;;;4917826;29;20508;-77
2022/08/20 14:05:33;;;;;;;6.30;1.30;;;24.00;99.90;;;;;;4917044;29;20052;-77
2022/08/20 14:08:17;;;;;;;6.65;2.05;;;23.90;99.90;;;;;;4917333;29;20044;-77
2022/08/20 14:10:45;;;;;;;4.90;1.10;;;23.90;99.90;;;;;;4911319;29;20051;-78
2022/08/20 14:13:11;;;;;;;6.88;1.50;;;23.70;99.90;;;;;;4918054;29;20059;-78
2022/08/20 14:15:37;;;;;;;4.00;1.33;;;23.70;99.90;;;;;;4917987;29;20040;-78
2022/08/20 14:18:03;;;;;;;7.47;1.38;;;23.60;99.90;;;;;;4917874;29;20056;-77
2022/08/20 14:20:32;;;;;;;5.28;1.55;;;23.40;99.90;;;;;;4917802;29;20448;-77
2022/08/20 14:23:00;;;;;;;5.50;1.40;;;23.30;99.90;;;;;;4917894;29;20063;-77
2022/08/20 14:25:27;;;;;;;5.15;1.48;;;23.10;99.90;;;;;;4915101;29;20055;-77
2022/08/20 14:27:54;;;;;;;5.38;1.38;;;23.20;99.90;;;;;;4918051;29;20044;-77
2022/08/20 14:30:23;;;;;;;8.05;2.00;;;23.10;99.90;;;;;;4917694;29;20411;-77
2022/08/20 14:32:49;;;;;;;6.07;1.60;;;23.10;99.90;;;;;;4910110;29;20111;-77
2022/08/20 14:35:15;;;;;;;4.40;1.42;;;23.00;99.90;;;;;;4917934;29;20064;-77
2022/08/20 14:37:45;;;;;;;5.45;1.88;;;23.10;99.90;;;;;;4917832;29;20495;-77
2022/08/20 14:40:14;;;;;;;7.07;2.35;;;23.30;99.90;;;;;;4917863;29;20507;-78
2022/08/20 14:42:40;;;;;;;7.57;1.80;;;23.40;99.90;;;;;;4910197;29;20130;-76
2022/08/20 14:45:07;;;;;;;8.95;1.80;;;23.50;99.90;;;;;;4917487;29;20191;-77
2022/08/20 14:47:36;;;;;;;7.20;1.98;;;23.30;99.90;;;;;;4917672;29;20052;-77
2022/08/20 14:50:15;;;;;;;8.15;2.15;;;23.20;99.90;;;;;;4911538;29;20052;-77
2022/08/20 14:52:41;;;;;;;4.60;1.70;;;23.10;99.90;;;;;;4917484;29;20059;-77
2022/08/20 14:55:10;;;;;;;5.78;1.60;;;23.00;99.90;;;;;;4917297;29;20545;-78
2022/08/20 14:57:37;;;;;;;8.90;1.73;;;23.00;99.90;;;;;;4917544;29;20044;-77
2022/08/20 15:00:06;;;;;;;5.57;1.67;;;23.10;99.90;;;;;;4917561;29;20044;-77
2022/08/20 15:02:32;;;;;;;6.40;1.67;;;23.20;99.90;;;;;;4917505;29;20119;-77
2022/08/20 15:04:58;;;;;;;6.63;1.85;;;23.30;99.90;;;;;;4917415;29;20079;-77
2022/08/20 15:07:27;;;;;;;6.93;1.60;;;23.40;99.90;;;;;;4917522;29;20075;-76
2022/08/20 15:09:54;;;;;;;7.63;1.98;;;23.50;99.90;;;;;;4917222;29;20043;-76
2022/08/20 15:12:20;;;;;;;9.32;1.70;;;23.60;99.90;;;;;;4917139;29;20044;-76
2022/08/20 15:14:46;;;;;;;6.47;1.83;;;23.70;99.90;;;;;;4917396;29;20377;-77
2022/08/20 15:17:18;;;;;;;4.85;1.60;;;23.40;99.90;;;;;;4917375;29;20091;-77
2022/08/20 15:19:44;;;;;;;8.45;1.83;;;23.20;99.90;;;;;;4902030;29;20048;-77
2022/08/20 15:22:09;;;;;;;5.90;1.50;;;23.10;99.90;;;;;;4917157;29;20103;-76
2022/08/20 15:24:35;;;;;;;6.15;1.60;;;23.10;99.90;;;;;;4915353;29;20139;-79
2022/08/20 15:27:16;;;;;;;5.18;1.70;;;23.10;99.90;;;;;;4917322;29;20087;-77
2022/08/20 15:29:42;;;;;;;5.18;1.80;;;23.40;99.90;;;;;;4901631;29;20107;-76
2022/08/20 15:32:08;;;;;;;8.95;1.83;;;23.60;99.90;;;;;;4917298;29;20040;-76
2022/08/20 15:34:38;;;;;;;6.97;1.80;;;23.60;99.90;;;;;;4917207;29;20048;-77
2022/08/20 15:37:26;;;;;;;7.18;2.05;;;23.60;99.90;;;;;;4916994;29;20048;-77
2022/08/20 15:39:52;;;;;;;5.05;1.45;;;23.60;99.90;;;;;;4911198;29;20060;-76
2022/08/20 15:42:19;;;;;;;7.40;1.73;;;23.60;99.90;;;;;;4913215;29;20056;-76
2022/08/20 15:44:45;;;;;;;6.00;1.95;;;23.60;99.90;;;;;;4917113;29;20048;-76
2022/08/20 15:47:30;;;;;;;5.25;1.55;;;23.60;99.90;;;;;;4912360;29;20485;-76
2022/08/20 15:50:13;;;;;;;8.40;1.75;;;23.70;99.90;;;;;;4916009;29;20480;-76
2022/08/20 15:52:42;;;;;;;6.93;1.48;;;23.40;99.90;;;;;;4900414;29;20401;-77
2022/08/20 15:55:12;;;;;;;6.40;1.80;;;23.50;99.90;;;;;;4917091;29;20044;-77
2022/08/20 15:57:51;;;;;;;7.43;1.92;;;23.40;99.90;;;;;;4917141;29;20048;-77
2022/08/20 16:01:12;;;;;;;11.63;2.53;;;23.30;99.90;;;;;;4913195;29;20400;-77
2022/08/20 16:04:10;;;;;;;4.07;1.88;;;23.20;99.90;;;;;;4841821;29;20117;-77
2022/08/20 16:06:36;;;;;;;9.35;2.03;;;22.90;99.90;;;;;;4915829;29;20052;-76
2022/08/20 16:09:08;;;;;;;8.15;2.22;;;22.90;99.90;;;;;;4911182;29;20056;-77
2022/08/20 16:11:58;;;;;;;5.68;1.45;;;23.00;99.90;;;;;;4915576;29;20380;-77
2022/08/20 16:14:27;;;;;;;8.15;1.50;;;23.10;99.90;;;;;;4913821;29;20059;-77
2022/08/20 16:17:05;;;;;;;6.38;1.80;;;23.00;99.90;;;;;;4909769;29;20815;-76